CheckWX is a tool to help pilots better visualize weather data.  It is not intended as a substitute for an official pre-flight weather briefing.

14:39:53 UTC

KFET METAR
Fremont Municipal Airport
Fremont, Nebraska, USA
Current

25 mins ago

KFET 221415Z AUTO 31011KT 10SM OVC008 12/10 A2992 RMK AO2 T01150101
Observed
Apr-22 @ 14:15 UTC
Wind
  • 310° at 11 KTS
Visibility
10 SM
Flight Rules
IFR
Cloud Levels
  • Overcast at 800' AGL
Temperature
12°C / 54°F
Dewpoint
10°C / 50°F
Humidity
88%
Altimeter
29.92" Hg
Pressure
1013.22 hPa
Previous

45 mins ago

KFET 221355Z AUTO 31014KT 10SM -DZ OVC008 11/10 A2990 RMK AO2 LTG DSNT E T01130101
Observed
Apr-22 @ 13:55 UTC
Wind
  • 310° at 14 KTS
Visibility
10 SM
Flight Rules
IFR
Conditions
Light Drizzle
Cloud Levels
  • Overcast at 800' AGL
Temperature
11°C / 52°F
Dewpoint
10°C / 50°F
Humidity
94%
Altimeter
29.9" Hg
Pressure
1012.52 hPa
Previous

1 hour ago

KFET 221335Z AUTO 31014G18KT 10SM -RA OVC008 12/11 A2989 RMK AO2 LTG DSNT E T01180106
Observed
Apr-22 @ 13:35 UTC
Wind
  • 310° at 14 KTS
  • Gusting to 18 KTS
Visibility
10 SM
Flight Rules
IFR
Conditions
Light Rain
Cloud Levels
  • Overcast at 800' AGL
Temperature
12°C / 54°F
Dewpoint
11°C / 52°F
Humidity
94%
Altimeter
29.89" Hg
Pressure
1012.22 hPa